createdAt,value
2022-12-26T00:00:31.413Z,11.05
2022-12-26T00:02:58.206Z,11.08
2022-12-26T00:05:24.793Z,11.04
2022-12-26T00:07:51.545Z,10.98
2022-12-26T00:10:18.287Z,11.04
2022-12-26T00:12:44.983Z,10.98
2022-12-26T00:15:11.719Z,11.04
2022-12-26T00:17:38.152Z,11.00
2022-12-26T00:20:05.220Z,10.99
2022-12-26T00:22:31.731Z,11.07
2022-12-26T00:24:58.182Z,11.00
2022-12-26T00:27:24.535Z,11.03
2022-12-26T00:29:50.998Z,11.03
2022-12-26T00:32:17.550Z,11.06
2022-12-26T00:34:44.040Z,11.02
2022-12-26T00:37:10.534Z,11.05
2022-12-26T00:39:36.956Z,11.10
2022-12-26T00:42:04.079Z,11.09
2022-12-26T00:44:30.440Z,11.16
2022-12-26T00:46:57.780Z,11.22
2022-12-26T00:49:24.364Z,11.25
2022-12-26T00:51:50.842Z,11.12
2022-12-26T00:54:18.115Z,11.11
2022-12-26T00:56:44.565Z,11.11
2022-12-26T00:59:11.282Z,11.12
2022-12-26T01:01:37.978Z,11.18
2022-12-26T01:04:04.826Z,11.15
2022-12-26T01:06:31.542Z,11.18
2022-12-26T01:08:59.470Z,11.13
2022-12-26T01:11:41.101Z,11.06
2022-12-26T01:14:14.768Z,11.07
2022-12-26T01:16:43.264Z,11.02
2022-12-26T01:19:11.937Z,11.08
2022-12-26T01:21:38.754Z,11.14
2022-12-26T01:24:06.475Z,11.14
2022-12-26T01:26:32.936Z,11.07
2022-12-26T01:28:59.347Z,11.02
2022-12-26T01:31:25.779Z,11.06
2022-12-26T01:33:52.274Z,11.06
2022-12-26T01:36:18.951Z,11.00
2022-12-26T01:38:45.680Z,11.05
2022-12-26T01:41:20.028Z,11.07
2022-12-26T01:43:59.047Z,11.03
2022-12-26T01:46:37.402Z,10.98
2022-12-26T01:49:19.893Z,10.81
2022-12-26T01:51:53.387Z,10.62
2022-12-26T01:54:40.773Z,10.76
2022-12-26T01:57:13.317Z,10.79
2022-12-26T01:59:41.366Z,10.88
2022-12-26T02:02:08.998Z,10.88
2022-12-26T02:04:59.928Z,10.93
2022-12-26T02:07:26.818Z,10.94
2022-12-26T02:09:53.766Z,10.95
2022-12-26T02:12:33.961Z,11.04
2022-12-26T02:15:10.419Z,11.07
2022-12-26T02:17:37.813Z,10.97
2022-12-26T02:20:17.349Z,10.94
2022-12-26T02:23:05.240Z,10.87
2022-12-26T02:25:50.232Z,10.82
2022-12-26T02:28:58.223Z,10.85
2022-12-26T02:32:06.401Z,10.89
2022-12-26T02:34:38.977Z,10.87
2022-12-26T02:37:52.678Z,10.74
2022-12-26T02:40:32.673Z,10.80
2022-12-26T02:43:21.000Z,10.75
2022-12-26T02:46:22.676Z,10.77
2022-12-26T02:48:52.173Z,10.78
2022-12-26T02:52:03.206Z,10.80
2022-12-26T02:55:04.498Z,10.77
2022-12-26T02:58:00.304Z,10.71
2022-12-26T03:00:46.671Z,10.74
2022-12-26T03:03:45.248Z,10.75
2022-12-26T03:06:38.639Z,10.69
2022-12-26T03:09:29.676Z,10.74
2022-12-26T03:12:26.111Z,10.75
2022-12-26T03:14:57.014Z,10.78
2022-12-26T03:17:49.803Z,10.82
2022-12-26T03:20:42.952Z,10.79
2022-12-26T03:23:16.096Z,10.72
2022-12-26T03:26:09.929Z,10.69
2022-12-26T03:28:36.553Z,10.73
2022-12-26T03:31:08.531Z,10.76
2022-12-26T03:33:56.516Z,10.75
2022-12-26T03:36:40.784Z,10.76
2022-12-26T03:39:54.106Z,10.78
2022-12-26T03:42:47.782Z,10.82
2022-12-26T03:45:45.951Z,10.79
2022-12-26T03:48:50.198Z,10.75
2022-12-26T03:51:54.053Z,10.73
2022-12-26T03:55:06.122Z,10.61
2022-12-26T03:57:57.591Z,10.57
2022-12-26T04:00:44.193Z,10.47
2022-12-26T04:03:32.411Z,10.40
2022-12-26T04:06:21.904Z,10.44
2022-12-26T04:12:40.681Z,10.34
2022-12-26T04:15:37.830Z,10.35
2022-12-26T04:18:35.903Z,10.43
2022-12-26T04:21:08.842Z,10.35
2022-12-26T04:24:01.508Z,10.36
2022-12-26T04:26:50.895Z,10.46
2022-12-26T04:29:36.155Z,10.29
2022-12-26T04:32:47.318Z,10.35
2022-12-26T04:36:01.517Z,10.28
2022-12-26T04:38:52.837Z,10.27
2022-12-26T04:41:39.300Z,10.25
2022-12-26T04:44:08.757Z,10.27
2022-12-26T04:46:39.212Z,10.27
2022-12-26T04:49:30.396Z,10.31
2022-12-26T04:51:58.061Z,10.38
2022-12-26T04:54:24.841Z,10.38
2022-12-26T04:56:51.421Z,10.39
2022-12-26T04:59:18.297Z,10.44
2022-12-26T05:02:03.228Z,10.37
2022-12-26T05:04:48.268Z,10.40
2022-12-26T05:07:43.962Z,10.36
2022-12-26T05:10:20.830Z,10.43
2022-12-26T05:12:47.680Z,10.39
2022-12-26T05:15:14.952Z,10.43
2022-12-26T05:18:00.043Z,10.49
2022-12-26T05:20:49.807Z,10.55
2022-12-26T05:23:36.907Z,10.54
2022-12-26T05:26:23.315Z,10.36
2022-12-26T05:28:57.749Z,10.47
2022-12-26T05:31:26.226Z,10.41
2022-12-26T05:34:07.767Z,10.40
2022-12-26T05:36:56.722Z,10.35
2022-12-26T05:39:23.181Z,10.29
2022-12-26T05:41:49.738Z,10.38
2022-12-26T05:44:16.173Z,10.45
2022-12-26T05:46:43.021Z,10.42
2022-12-26T05:49:10.117Z,10.41
2022-12-26T05:51:36.607Z,10.45
2022-12-26T05:54:03.394Z,10.36
2022-12-26T05:56:30.339Z,10.36
2022-12-26T05:59:00.116Z,10.44
2022-12-26T06:01:28.662Z,10.48
2022-12-26T06:03:57.706Z,10.45
2022-12-26T06:06:25.396Z,10.58
2022-12-26T06:08:53.822Z,10.64
2022-12-26T06:11:20.896Z,10.52
2022-12-26T06:13:47.356Z,10.57
2022-12-26T06:16:16.663Z,10.60
2022-12-26T06:18:43.499Z,10.53
2022-12-26T06:21:14.346Z,10.66
2022-12-26T06:23:41.306Z,10.53
2022-12-26T06:26:10.204Z,10.53
2022-12-26T06:28:37.577Z,10.62
2022-12-26T06:31:10.505Z,10.67
2022-12-26T06:33:37.946Z,10.54
2022-12-26T06:36:07.239Z,10.53
2022-12-26T06:38:34.863Z,10.59
2022-12-26T06:41:03.971Z,10.49
2022-12-26T06:43:30.425Z,10.50
2022-12-26T06:46:01.066Z,10.56
2022-12-26T06:48:28.452Z,10.49
2022-12-26T06:50:54.837Z,10.60
2022-12-26T06:53:22.423Z,10.53
2022-12-26T06:55:49.350Z,10.60
2022-12-26T06:58:16.801Z,10.53
2022-12-26T07:00:43.910Z,10.66
2022-12-26T07:03:11.331Z,10.54
2022-12-26T07:05:38.841Z,10.46
2022-12-26T07:08:05.655Z,10.50
2022-12-26T07:10:36.721Z,10.39
2022-12-26T07:13:03.304Z,10.46
2022-12-26T07:15:31.553Z,10.45
2022-12-26T07:17:58.050Z,10.17
2022-12-26T07:20:24.470Z,10.12
2022-12-26T07:22:50.869Z,10.07
2022-12-26T07:25:17.538Z,10.03
2022-12-26T07:27:44.021Z,10.05
2022-12-26T07:30:10.820Z,10.05
2022-12-26T07:32:37.207Z,10.06
2022-12-26T07:35:03.857Z,9.94
2022-12-26T07:37:30.227Z,9.88
2022-12-26T07:39:59.072Z,9.90
2022-12-26T07:42:26.038Z,9.82
2022-12-26T07:44:52.463Z,9.73
2022-12-26T07:47:18.917Z,9.65
2022-12-26T07:49:45.306Z,9.61
2022-12-26T07:52:11.799Z,9.54
2022-12-26T07:54:38.227Z,9.54
2022-12-26T07:57:38.061Z,9.57
2022-12-26T07:59:53.579Z,9.44
2022-12-26T08:02:20.468Z,9.33
2022-12-26T08:04:47.227Z,9.21
2022-12-26T08:07:13.609Z,9.29
2022-12-26T08:09:42.801Z,9.28
2022-12-26T08:12:09.391Z,9.24
2022-12-26T08:14:37.676Z,9.29
2022-12-26T08:17:04.194Z,9.09
2022-12-26T08:19:30.694Z,9.09
2022-12-26T08:21:57.157Z,9.20
2022-12-26T08:24:23.938Z,9.21
2022-12-26T08:26:50.457Z,9.20
2022-12-26T08:29:16.917Z,9.17
2022-12-26T08:31:43.324Z,9.13
2022-12-26T08:34:09.902Z,9.20
2022-12-26T08:36:36.488Z,9.27
2022-12-26T08:39:03.021Z,9.51
2022-12-26T08:41:29.372Z,9.65
2022-12-26T08:46:42.205Z,9.53
2022-12-26T08:49:08.628Z,9.43
2022-12-26T08:51:35.199Z,9.62
2022-12-26T08:54:01.937Z,9.68
2022-12-26T08:56:28.992Z,9.43
2022-12-26T08:58:55.431Z,9.56
2022-12-26T09:01:25.891Z,9.62
2022-12-26T09:03:54.178Z,9.77
2022-12-26T09:06:21.267Z,9.87
2022-12-26T09:08:48.077Z,9.93
2022-12-26T09:11:17.639Z,9.92
2022-12-26T09:13:45.662Z,9.83
2022-12-26T09:16:14.919Z,10.01
2022-12-26T09:18:42.047Z,9.95
2022-12-26T09:21:10.288Z,9.94
2022-12-26T09:23:37.202Z,10.01
2022-12-26T09:26:06.375Z,10.12
2022-12-26T09:28:33.446Z,10.11
2022-12-26T09:31:01.839Z,10.31
2022-12-26T09:33:29.576Z,10.21
2022-12-26T09:36:01.576Z,10.38
2022-12-26T09:38:30.455Z,10.28
2022-12-26T09:41:30.696Z,10.37
2022-12-26T09:44:16.270Z,10.48
2022-12-26T09:46:48.710Z,10.37
2022-12-26T09:49:15.054Z,10.53
2022-12-26T09:51:44.738Z,10.53
2022-12-26T09:54:33.131Z,10.64
2022-12-26T09:57:04.610Z,10.56
2022-12-26T09:59:43.356Z,10.43
2022-12-26T10:02:17.971Z,10.40
2022-12-26T10:04:44.708Z,10.43
2022-12-26T10:07:32.263Z,10.47
2022-12-26T10:10:09.246Z,10.44
2022-12-26T10:13:03.555Z,10.57
2022-12-26T10:15:45.777Z,10.47
2022-12-26T10:18:25.731Z,10.44
2022-12-26T10:21:04.406Z,10.45
2022-12-26T10:23:36.777Z,10.60
2022-12-26T10:26:25.087Z,10.71
2022-12-26T10:29:13.745Z,10.86
2022-12-26T10:31:48.976Z,11.07
2022-12-26T10:34:27.576Z,11.18
2022-12-26T10:37:18.306Z,11.38
2022-12-26T10:40:16.659Z,11.08
2022-12-26T10:42:46.391Z,11.08
2022-12-26T10:45:18.417Z,10.86
2022-12-26T10:47:50.749Z,11.07
2022-12-26T10:50:28.018Z,10.94
2022-12-26T10:52:55.679Z,11.07
2022-12-26T10:55:31.794Z,10.79
2022-12-26T10:58:06.709Z,11.06
2022-12-26T11:00:34.562Z,11.17
2022-12-26T11:03:11.473Z,11.20
2022-12-26T11:08:46.232Z,10.85
2022-12-26T11:11:45.855Z,10.92
2022-12-26T11:14:33.706Z,11.14
2022-12-26T11:17:04.954Z,11.09
2022-12-26T11:19:35.101Z,11.04
2022-12-26T11:22:28.921Z,11.04
2022-12-26T11:25:20.817Z,10.88
2022-12-26T11:27:56.592Z,10.86
2022-12-26T11:30:23.166Z,11.01
2022-12-26T11:33:14.858Z,11.08
2022-12-26T11:35:51.504Z,11.32
2022-12-26T11:38:45.766Z,11.42
2022-12-26T11:41:31.627Z,11.44
2022-12-26T11:44:22.219Z,11.61
2022-12-26T11:47:07.299Z,11.24
2022-12-26T11:49:37.712Z,11.07
2022-12-26T11:52:42.092Z,11.30
2022-12-26T11:55:33.519Z,11.21
2022-12-26T11:58:09.509Z,11.03
2022-12-26T12:00:41.926Z,11.09
2022-12-26T12:03:14.692Z,11.09
2022-12-26T12:06:00.439Z,11.10
2022-12-26T12:09:02.205Z,10.89
2022-12-26T12:11:50.713Z,10.84
2022-12-26T12:14:50.874Z,10.93
2022-12-26T12:17:26.391Z,10.40
2022-12-26T12:20:31.916Z,10.15
2022-12-26T12:23:16.812Z,10.04
2022-12-26T12:25:46.102Z,9.96
2022-12-26T12:28:21.670Z,10.09
2022-12-26T12:30:57.040Z,10.25
2022-12-26T12:33:36.029Z,10.19
2022-12-26T12:36:08.305Z,9.80
2022-12-26T12:38:56.391Z,9.53
2022-12-26T12:41:37.941Z,9.41
2022-12-26T12:44:48.518Z,9.21
2022-12-26T12:47:37.830Z,9.11
2022-12-26T12:50:22.796Z,9.29
2022-12-26T12:53:10.534Z,9.35
2022-12-26T12:55:40.057Z,9.29
2022-12-26T12:58:23.250Z,9.37
2022-12-26T13:00:59.286Z,9.37
2022-12-26T13:04:08.816Z,9.44
2022-12-26T13:06:41.825Z,9.31
2022-12-26T13:09:18.782Z,9.38
2022-12-26T13:11:51.720Z,9.33
2022-12-26T13:14:23.717Z,9.31
2022-12-26T13:17:02.530Z,9.32
2022-12-26T13:19:41.503Z,9.23
2022-12-26T13:22:16.947Z,9.29
2022-12-26T13:24:46.661Z,9.22
2022-12-26T13:27:22.292Z,9.25
2022-12-26T13:29:49.395Z,9.29
2022-12-26T13:32:29.479Z,9.43
2022-12-26T13:34:58.435Z,9.48
2022-12-26T13:37:40.151Z,9.48
2022-12-26T13:40:12.720Z,9.43
2022-12-26T13:43:10.516Z,9.36
2022-12-26T13:45:43.256Z,9.47
2022-12-26T13:48:15.793Z,9.31
2022-12-26T13:50:56.075Z,9.40
2022-12-26T13:53:26.107Z,9.32
2022-12-26T13:56:23.238Z,9.38
2022-12-26T13:59:08.082Z,9.30
2022-12-26T14:01:43.068Z,9.37
2022-12-26T14:04:41.012Z,9.27
2022-12-26T14:07:19.729Z,9.12
2022-12-26T14:09:58.587Z,9.16
2022-12-26T14:12:50.040Z,9.14
2022-12-26T14:15:38.557Z,9.12
2022-12-26T14:18:42.278Z,9.11
2022-12-26T14:21:33.818Z,9.16
2022-12-26T14:24:09.493Z,9.15
2022-12-26T14:26:54.234Z,9.09
2022-12-26T14:29:40.149Z,9.14
2022-12-26T14:32:32.469Z,9.01
2022-12-26T14:35:28.557Z,9.08
2022-12-26T14:38:22.954Z,9.11
2022-12-26T14:41:05.032Z,9.02
2022-12-26T14:43:31.555Z,9.04
2022-12-26T14:45:58.978Z,9.00
2022-12-26T14:48:28.465Z,9.04
2022-12-26T14:51:16.098Z,9.03
2022-12-26T14:53:44.978Z,9.08
2022-12-26T14:56:18.069Z,8.97
2022-12-26T14:58:45.242Z,8.92
2022-12-26T15:01:20.679Z,8.93
2022-12-26T15:04:08.825Z,9.01
2022-12-26T15:06:47.443Z,8.95
2022-12-26T15:09:32.973Z,8.87
2022-12-26T15:12:20.819Z,8.98
2022-12-26T15:15:26.789Z,9.01
2022-12-26T15:18:09.476Z,8.91
2022-12-26T15:21:00.333Z,8.90
2022-12-26T15:23:57.957Z,8.81
2022-12-26T15:26:56.831Z,8.91
2022-12-26T15:29:35.399Z,8.91
2022-12-26T15:32:46.225Z,8.88
2022-12-26T15:35:41.822Z,8.86
2022-12-26T15:38:39.956Z,8.91
2022-12-26T15:41:14.407Z,8.97
2022-12-26T15:43:54.913Z,8.97
2022-12-26T15:46:27.610Z,9.02
2022-12-26T15:49:32.860Z,8.98
2022-12-26T15:52:13.831Z,9.02
2022-12-26T15:54:58.976Z,9.03
2022-12-26T15:57:50.914Z,9.11
2022-12-26T16:00:22.502Z,9.03
2022-12-26T16:03:18.233Z,8.93
2022-12-26T16:05:56.273Z,9.02
2022-12-26T16:08:48.726Z,8.99
2022-12-26T16:11:20.886Z,9.04
2022-12-26T16:14:04.438Z,8.96
2022-12-26T16:16:35.810Z,9.02
2022-12-26T16:19:30.558Z,8.97
2022-12-26T16:22:21.517Z,8.95
2022-12-26T16:24:51.406Z,9.03
2022-12-26T16:27:20.533Z,9.11
2022-12-26T16:29:50.073Z,9.17
2022-12-26T16:32:20.348Z,9.39
2022-12-26T16:34:48.123Z,9.11
2022-12-26T16:37:28.398Z,8.73
2022-12-26T16:40:06.475Z,8.55
2022-12-26T16:42:33.140Z,8.18
2022-12-26T16:45:00.668Z,7.93
2022-12-26T16:47:30.180Z,7.64
2022-12-26T16:49:57.958Z,7.18
2022-12-26T16:53:11.520Z,7.14
2022-12-26T16:55:40.147Z,6.91
2022-12-26T16:58:18.256Z,6.70
2022-12-26T17:01:00.998Z,6.57
2022-12-26T17:03:40.969Z,6.58
2022-12-26T17:06:30.541Z,6.76
2022-12-26T17:08:59.653Z,6.87
2022-12-26T17:11:33.289Z,6.77
2022-12-26T17:14:01.256Z,6.64
2022-12-26T17:16:30.795Z,6.76
2022-12-26T17:19:17.083Z,6.95
2022-12-26T17:22:15.172Z,6.91
2022-12-26T17:24:42.548Z,6.97
2022-12-26T17:27:16.546Z,6.97
2022-12-26T17:30:01.037Z,7.02
2022-12-26T17:32:32.920Z,6.90
2022-12-26T17:35:23.444Z,7.02
2022-12-26T17:37:55.310Z,7.02
2022-12-26T17:40:37.375Z,7.05
2022-12-26T17:43:20.588Z,7.04
2022-12-26T17:45:47.339Z,7.07
2022-12-26T17:48:13.896Z,7.21
2022-12-26T17:50:46.576Z,7.22
2022-12-26T17:53:12.967Z,7.30
2022-12-26T17:55:40.007Z,7.31
2022-12-26T17:58:13.064Z,6.98
2022-12-26T18:00:40.924Z,7.11
2022-12-26T18:03:07.453Z,6.89
2022-12-26T18:05:34.441Z,6.81
2022-12-26T18:08:01.443Z,6.89
2022-12-26T18:10:31.470Z,6.92
2022-12-26T18:12:58.979Z,6.84
2022-12-26T18:15:27.874Z,6.78
2022-12-26T18:17:54.543Z,6.79
2022-12-26T18:20:28.265Z,6.74
2022-12-26T18:22:55.858Z,6.73
2022-12-26T18:25:29.881Z,6.60
2022-12-26T18:27:56.407Z,6.76
2022-12-26T18:30:25.333Z,6.70
2022-12-26T18:32:54.812Z,6.65
2022-12-26T18:35:21.652Z,6.67
2022-12-26T18:37:52.144Z,6.84
2022-12-26T18:40:29.444Z,6.57
2022-12-26T18:42:56.527Z,6.59
2022-12-26T18:45:23.731Z,6.28
2022-12-26T18:47:50.518Z,6.35
2022-12-26T18:50:18.255Z,6.46
2022-12-26T18:52:48.621Z,6.20
2022-12-26T18:55:18.208Z,6.23
2022-12-26T18:57:45.100Z,6.34
2022-12-26T19:00:14.583Z,6.10
2022-12-26T19:02:41.746Z,6.04
2022-12-26T19:05:19.381Z,5.95
2022-12-26T19:07:48.463Z,5.82
2022-12-26T19:10:17.933Z,5.67
2022-12-26T19:12:44.881Z,5.57
2022-12-26T19:15:12.464Z,5.64
2022-12-26T19:17:45.091Z,5.61
2022-12-26T19:20:21.574Z,5.51
2022-12-26T19:22:49.723Z,5.32
2022-12-26T19:25:17.824Z,5.27
2022-12-26T19:27:45.313Z,5.10
2022-12-26T19:30:14.981Z,5.23
2022-12-26T19:32:43.203Z,5.16
2022-12-26T19:35:12.925Z,5.15
2022-12-26T19:37:40.069Z,5.19
2022-12-26T19:40:07.680Z,5.12
2022-12-26T19:42:39.978Z,4.97
2022-12-26T19:45:09.490Z,5.06
2022-12-26T19:47:36.169Z,5.18
2022-12-26T19:50:04.724Z,5.17
2022-12-26T19:52:31.370Z,5.38
2022-12-26T19:54:57.947Z,5.36
2022-12-26T19:57:24.443Z,5.44
2022-12-26T19:59:53.085Z,5.37
2022-12-26T20:02:19.795Z,5.27
2022-12-26T20:04:46.685Z,5.25
2022-12-26T20:07:16.859Z,5.24
2022-12-26T20:09:46.141Z,4.93
2022-12-26T20:12:12.575Z,4.88
2022-12-26T20:14:41.465Z,4.85
2022-12-26T20:17:12.307Z,4.76
2022-12-26T20:19:39.317Z,4.99
2022-12-26T20:22:06.498Z,4.93
2022-12-26T20:24:33.637Z,4.96
2022-12-26T20:27:00.065Z,5.09
2022-12-26T20:29:26.619Z,5.23
2022-12-26T20:31:55.285Z,5.12
2022-12-26T20:34:24.201Z,5.13
2022-12-26T20:36:53.625Z,5.26
2022-12-26T20:39:22.256Z,5.29
2022-12-26T20:41:48.894Z,5.21
2022-12-26T20:44:16.938Z,5.17
2022-12-26T20:46:44.427Z,5.04
2022-12-26T20:49:11.444Z,4.83
2022-12-26T20:51:40.612Z,4.69
2022-12-26T20:54:08.925Z,4.64
2022-12-26T20:56:36.942Z,4.56
2022-12-26T20:59:05.059Z,4.46
2022-12-26T21:01:35.188Z,4.36
2022-12-26T21:04:02.282Z,4.22
2022-12-26T21:06:39.239Z,4.12
2022-12-26T21:09:06.576Z,3.88
2022-12-26T21:11:38.175Z,3.80
2022-12-26T21:14:08.391Z,3.88
2022-12-26T21:16:58.580Z,3.93
2022-12-26T21:19:29.260Z,3.80
2022-12-26T21:21:56.637Z,3.83
2022-12-26T21:24:26.570Z,3.77
2022-12-26T21:26:55.864Z,3.68
2022-12-26T21:29:30.563Z,3.59
2022-12-26T21:31:57.751Z,3.46
2022-12-26T21:34:29.340Z,3.56
2022-12-26T21:37:15.774Z,3.54
2022-12-26T21:39:51.725Z,3.53
2022-12-26T21:42:18.537Z,3.41
2022-12-26T21:44:45.032Z,3.34
2022-12-26T21:47:12.345Z,3.34
2022-12-26T21:49:38.738Z,3.31
2022-12-26T21:52:10.936Z,3.28
2022-12-26T21:54:56.154Z,3.30
2022-12-26T21:57:27.787Z,3.15
2022-12-26T21:59:57.305Z,2.99
2022-12-26T22:02:54.365Z,3.06
2022-12-26T22:05:29.351Z,2.92
2022-12-26T22:11:05.536Z,2.92
2022-12-26T22:13:49.201Z,2.99
2022-12-26T22:16:18.434Z,2.80
2022-12-26T22:18:47.092Z,2.69
2022-12-26T22:21:23.677Z,2.79
2022-12-26T22:23:51.511Z,2.79
2022-12-26T22:26:22.800Z,2.68
2022-12-26T22:28:51.683Z,2.56
2022-12-26T22:31:20.208Z,2.59
2022-12-26T22:33:56.366Z,2.56
2022-12-26T22:36:22.899Z,2.54
2022-12-26T22:38:51.819Z,2.56
2022-12-26T22:41:18.405Z,2.43
2022-12-26T22:43:48.145Z,2.36
2022-12-26T22:46:15.090Z,2.37
2022-12-26T22:48:42.010Z,2.40
2022-12-26T22:51:09.756Z,2.24
2022-12-26T22:53:36.146Z,2.31
2022-12-26T22:56:06.859Z,2.29
2022-12-26T22:58:36.546Z,2.24
2022-12-26T23:01:08.107Z,2.21
2022-12-26T23:03:34.647Z,2.20
2022-12-26T23:06:04.532Z,2.18
2022-12-26T23:08:31.250Z,2.26
2022-12-26T23:10:58.664Z,2.22
2022-12-26T23:13:30.892Z,2.12
2022-12-26T23:16:13.334Z,2.07
2022-12-26T23:19:08.512Z,2.11
2022-12-26T23:21:39.144Z,2.05
2022-12-26T23:24:16.254Z,2.04
2022-12-26T23:26:45.545Z,1.98
2022-12-26T23:29:35.554Z,1.97
2022-12-26T23:32:02.555Z,1.99
2022-12-26T23:34:32.152Z,1.99
2022-12-26T23:37:08.980Z,1.98
2022-12-26T23:39:41.305Z,1.92
2022-12-26T23:42:07.963Z,1.96
2022-12-26T23:44:40.529Z,1.95
2022-12-26T23:47:11.375Z,1.91
2022-12-26T23:49:40.831Z,1.96
2022-12-26T23:52:07.277Z,1.86
2022-12-26T23:54:39.340Z,1.88
2022-12-26T23:57:05.803Z,1.88
2022-12-26T23:59:32.227Z,1.88
